sensor_id;sensor_type;location;lat;lon;timestamp;temperature;humidity
40996;DHT22;26723;57.478;12.066;2022-07-11T00:02:42;13.80;99.90
40996;DHT22;26723;57.478;12.066;2022-07-11T00:05:52;13.70;99.90
40996;DHT22;26723;57.478;12.066;2022-07-11T00:09:00;13.70;99.90
40996;DHT22;26723;57.478;12.066;2022-07-11T00:12:12;13.70;99.90
40996;DHT22;26723;57.478;12.066;2022-07-11T00:15:20;13.80;99.90
40996;DHT22;26723;57.478;12.066;2022-07-11T00:18:29;13.70;99.90
40996;DHT22;26723;57.478;12.066;2022-07-11T00:21:38;13.60;99.90
40996;DHT22;26723;57.478;12.066;2022-07-11T00:24:46;13.50;99.90
40996;DHT22;26723;57.478;12.066;2022-07-11T00:27:55;13.40;99.90
40996;DHT22;26723;57.478;12.066;2022-07-11T00:31:03;13.20;99.90
40996;DHT22;26723;57.478;12.066;2022-07-11T00:34:14;13.20;99.90
40996;DHT22;26723;57.478;12.066;2022-07-11T00:37:25;13.00;99.90
40996;DHT22;26723;57.478;12.066;2022-07-11T00:40:33;13.00;99.90
40996;DHT22;26723;57.478;12.066;2022-07-11T00:43:42;13.10;99.90
40996;DHT22;26723;57.478;12.066;2022-07-11T00:46:51;13.00;99.90
40996;DHT22;26723;57.478;12.066;2022-07-11T00:50:00;13.00;99.90
40996;DHT22;26723;57.478;12.066;2022-07-11T00:53:10;12.90;99.90
40996;DHT22;26723;57.478;12.066;2022-07-11T00:56:20;13.00;99.90
40996;DHT22;26723;57.478;12.066;2022-07-11T00:59:29;13.00;99.90
40996;DHT22;26723;57.478;12.066;2022-07-11T01:02:37;13.00;99.90
40996;DHT22;26723;57.478;12.066;2022-07-11T01:05:46;12.90;99.90
40996;DHT22;26723;57.478;12.066;2022-07-11T01:08:55;12.90;99.90
40996;DHT22;26723;57.478;12.066;2022-07-11T01:12:05;12.90;99.90
40996;DHT22;26723;57.478;12.066;2022-07-11T01:15:14;12.90;99.90
40996;DHT22;26723;57.478;12.066;2022-07-11T01:18:22;12.80;99.90
40996;DHT22;26723;57.478;12.066;2022-07-11T01:21:33;12.60;99.90
40996;DHT22;26723;57.478;12.066;2022-07-11T01:24:47;12.60;99.90
40996;DHT22;26723;57.478;12.066;2022-07-11T01:27:56;12.70;99.90
40996;DHT22;26723;57.478;12.066;2022-07-11T01:31:05;12.80;99.90
40996;DHT22;26723;57.478;12.066;2022-07-11T01:34:13;12.80;99.90
40996;DHT22;26723;57.478;12.066;2022-07-11T01:37:21;12.80;99.90
40996;DHT22;26723;57.478;12.066;2022-07-11T01:40:31;12.70;99.90
40996;DHT22;26723;57.478;12.066;2022-07-11T01:43:39;12.60;99.90
40996;DHT22;26723;57.478;12.066;2022-07-11T01:46:48;12.50;99.90
40996;DHT22;26723;57.478;12.066;2022-07-11T01:49:56;12.50;99.90
40996;DHT22;26723;57.478;12.066;2022-07-11T01:53:04;12.40;99.90
40996;DHT22;26723;57.478;12.066;2022-07-11T01:56:13;12.50;99.90
40996;DHT22;26723;57.478;12.066;2022-07-11T01:59:30;12.50;99.90
40996;DHT22;26723;57.478;12.066;2022-07-11T02:02:38;12.50;99.90
40996;DHT22;26723;57.478;12.066;2022-07-11T02:05:46;12.40;99.90
40996;DHT22;26723;57.478;12.066;2022-07-11T02:08:55;12.30;99.90
40996;DHT22;26723;57.478;12.066;2022-07-11T02:12:05;12.30;99.90
40996;DHT22;26723;57.478;12.066;2022-07-11T02:15:14;12.40;99.90
40996;DHT22;26723;57.478;12.066;2022-07-11T02:18:22;12.30;99.90
40996;DHT22;26723;57.478;12.066;2022-07-11T02:21:30;12.30;99.90
40996;DHT22;26723;57.478;12.066;2022-07-11T02:24:38;12.20;99.90
40996;DHT22;26723;57.478;12.066;2022-07-11T02:27:48;12.20;99.90
40996;DHT22;26723;57.478;12.066;2022-07-11T02:30:57;12.20;99.90
40996;DHT22;26723;57.478;12.066;2022-07-11T02:34:05;12.00;99.90
40996;DHT22;26723;57.478;12.066;2022-07-11T02:37:13;11.90;99.90
40996;DHT22;26723;57.478;12.066;2022-07-11T02:40:21;11.90;99.90
40996;DHT22;26723;57.478;12.066;2022-07-11T02:43:31;12.00;99.90
40996;DHT22;26723;57.478;12.066;2022-07-11T02:46:39;12.00;99.90
40996;DHT22;26723;57.478;12.066;2022-07-11T02:49:47;12.00;99.90
40996;DHT22;26723;57.478;12.066;2022-07-11T02:52:55;12.10;99.90
40996;DHT22;26723;57.478;12.066;2022-07-11T02:56:04;12.00;99.90
40996;DHT22;26723;57.478;12.066;2022-07-11T02:59:14;12.00;99.90
40996;DHT22;26723;57.478;12.066;2022-07-11T03:02:22;12.00;99.90
40996;DHT22;26723;57.478;12.066;2022-07-11T03:05:31;12.00;99.90
40996;DHT22;26723;57.478;12.066;2022-07-11T03:08:39;12.00;99.90
40996;DHT22;26723;57.478;12.066;2022-07-11T03:11:47;11.90;99.90
40996;DHT22;26723;57.478;12.066;2022-07-11T03:14:58;11.90;99.90
40996;DHT22;26723;57.478;12.066;2022-07-11T03:18:06;12.00;99.90
40996;DHT22;26723;57.478;12.066;2022-07-11T03:21:15;12.00;99.90
40996;DHT22;26723;57.478;12.066;2022-07-11T03:24:23;12.10;99.90
40996;DHT22;26723;57.478;12.066;2022-07-11T03:27:31;12.10;99.90
40996;DHT22;26723;57.478;12.066;2022-07-11T03:30:41;12.10;99.90
40996;DHT22;26723;57.478;12.066;2022-07-11T03:33:49;12.20;99.90
40996;DHT22;26723;57.478;12.066;2022-07-11T03:36:57;12.30;99.90
40996;DHT22;26723;57.478;12.066;2022-07-11T03:40:07;12.30;99.90
40996;DHT22;26723;57.478;12.066;2022-07-11T03:43:15;12.30;99.90
40996;DHT22;26723;57.478;12.066;2022-07-11T03:46:25;12.40;99.90
40996;DHT22;26723;57.478;12.066;2022-07-11T03:49:33;12.30;99.90
40996;DHT22;26723;57.478;12.066;2022-07-11T03:52:41;12.40;99.90
40996;DHT22;26723;57.478;12.066;2022-07-11T03:55:49;12.50;99.90
40996;DHT22;26723;57.478;12.066;2022-07-11T03:58:57;12.60;99.90
40996;DHT22;26723;57.478;12.066;2022-07-11T04:02:07;12.70;99.90
40996;DHT22;26723;57.478;12.066;2022-07-11T04:05:15;12.70;99.90
40996;DHT22;26723;57.478;12.066;2022-07-11T04:08:24;12.80;99.90
40996;DHT22;26723;57.478;12.066;2022-07-11T04:11:32;12.80;99.90
40996;DHT22;26723;57.478;12.066;2022-07-11T04:14:40;12.80;99.90
40996;DHT22;26723;57.478;12.066;2022-07-11T04:17:50;12.90;99.90
40996;DHT22;26723;57.478;12.066;2022-07-11T04:20:58;13.00;99.90
40996;DHT22;26723;57.478;12.066;2022-07-11T04:24:14;13.00;99.90
40996;DHT22;26723;57.478;12.066;2022-07-11T04:27:22;13.20;99.90
40996;DHT22;26723;57.478;12.066;2022-07-11T04:30:36;13.20;99.90
40996;DHT22;26723;57.478;12.066;2022-07-11T04:33:46;13.40;99.90
40996;DHT22;26723;57.478;12.066;2022-07-11T04:36:54;13.50;99.90
40996;DHT22;26723;57.478;12.066;2022-07-11T04:40:03;13.60;99.90
40996;DHT22;26723;57.478;12.066;2022-07-11T04:43:18;13.70;99.90
40996;DHT22;26723;57.478;12.066;2022-07-11T04:46:27;13.80;99.90
40996;DHT22;26723;57.478;12.066;2022-07-11T04:49:37;13.90;99.90
40996;DHT22;26723;57.478;12.066;2022-07-11T04:52:45;14.00;99.90
40996;DHT22;26723;57.478;12.066;2022-07-11T04:55:54;14.10;99.90
40996;DHT22;26723;57.478;12.066;2022-07-11T04:59:02;14.30;99.90
40996;DHT22;26723;57.478;12.066;2022-07-11T05:02:10;14.40;99.90
40996;DHT22;26723;57.478;12.066;2022-07-11T05:05:20;14.60;99.90
40996;DHT22;26723;57.478;12.066;2022-07-11T05:08:30;14.80;99.90
40996;DHT22;26723;57.478;12.066;2022-07-11T05:11:43;14.90;99.90
40996;DHT22;26723;57.478;12.066;2022-07-11T05:14:51;15.00;99.90
40996;DHT22;26723;57.478;12.066;2022-07-11T05:18:00;15.20;99.90
40996;DHT22;26723;57.478;12.066;2022-07-11T05:21:10;15.30;99.90
40996;DHT22;26723;57.478;12.066;2022-07-11T05:24:18;15.40;99.90
40996;DHT22;26723;57.478;12.066;2022-07-11T05:27:26;15.40;99.90
40996;DHT22;26723;57.478;12.066;2022-07-11T05:30:34;15.40;99.90
40996;DHT22;26723;57.478;12.066;2022-07-11T05:33:43;15.60;99.90
40996;DHT22;26723;57.478;12.066;2022-07-11T05:36:52;15.60;99.90
40996;DHT22;26723;57.478;12.066;2022-07-11T05:40:01;15.70;99.90
40996;DHT22;26723;57.478;12.066;2022-07-11T05:43:12;15.80;99.90
40996;DHT22;26723;57.478;12.066;2022-07-11T05:46:20;15.90;99.90
40996;DHT22;26723;57.478;12.066;2022-07-11T05:49:31;16.00;99.90
40996;DHT22;26723;57.478;12.066;2022-07-11T05:52:40;16.20;99.90
40996;DHT22;26723;57.478;12.066;2022-07-11T05:55:48;16.40;99.90
40996;DHT22;26723;57.478;12.066;2022-07-11T05:58:57;16.50;99.90
40996;DHT22;26723;57.478;12.066;2022-07-11T06:02:05;16.60;99.90
40996;DHT22;26723;57.478;12.066;2022-07-11T06:05:14;16.80;99.90
40996;DHT22;26723;57.478;12.066;2022-07-11T06:08:23;17.00;99.90
40996;DHT22;26723;57.478;12.066;2022-07-11T06:11:50;17.40;99.90
40996;DHT22;26723;57.478;12.066;2022-07-11T06:14:58;17.90;99.90
40996;DHT22;26723;57.478;12.066;2022-07-11T06:18:07;17.90;99.90
40996;DHT22;26723;57.478;12.066;2022-07-11T06:21:15;18.10;99.90
40996;DHT22;26723;57.478;12.066;2022-07-11T06:24:24;18.50;99.90
40996;DHT22;26723;57.478;12.066;2022-07-11T06:27:33;18.90;99.90
40996;DHT22;26723;57.478;12.066;2022-07-11T06:30:41;18.80;99.90
40996;DHT22;26723;57.478;12.066;2022-07-11T06:33:49;18.80;99.90
40996;DHT22;26723;57.478;12.066;2022-07-11T06:37:03;18.80;99.90
40996;DHT22;26723;57.478;12.066;2022-07-11T06:40:12;18.90;99.90
40996;DHT22;26723;57.478;12.066;2022-07-11T06:43:24;19.00;99.90
40996;DHT22;26723;57.478;12.066;2022-07-11T06:46:33;19.00;99.90
40996;DHT22;26723;57.478;12.066;2022-07-11T06:49:42;19.60;99.90
40996;DHT22;26723;57.478;12.066;2022-07-11T06:52:50;20.10;99.90
40996;DHT22;26723;57.478;12.066;2022-07-11T06:56:00;20.00;99.90
40996;DHT22;26723;57.478;12.066;2022-07-11T06:59:08;19.80;99.90
40996;DHT22;26723;57.478;12.066;2022-07-11T07:02:16;19.70;99.90
40996;DHT22;26723;57.478;12.066;2022-07-11T07:05:25;19.90;99.90
40996;DHT22;26723;57.478;12.066;2022-07-11T07:08:34;20.20;99.90
40996;DHT22;26723;57.478;12.066;2022-07-11T07:11:44;20.50;99.90
40996;DHT22;26723;57.478;12.066;2022-07-11T07:14:52;20.50;99.90
40996;DHT22;26723;57.478;12.066;2022-07-11T07:18:00;20.50;99.90
40996;DHT22;26723;57.478;12.066;2022-07-11T07:21:09;20.40;99.90
40996;DHT22;26723;57.478;12.066;2022-07-11T07:24:18;20.40;99.90
40996;DHT22;26723;57.478;12.066;2022-07-11T07:27:27;20.30;99.90
40996;DHT22;26723;57.478;12.066;2022-07-11T07:30:35;20.20;99.90
40996;DHT22;26723;57.478;12.066;2022-07-11T07:33:44;20.30;99.90
40996;DHT22;26723;57.478;12.066;2022-07-11T07:36:53;20.30;99.90
40996;DHT22;26723;57.478;12.066;2022-07-11T07:40:01;20.60;99.90
40996;DHT22;26723;57.478;12.066;2022-07-11T07:43:11;20.80;99.90
40996;DHT22;26723;57.478;12.066;2022-07-11T07:46:19;21.10;99.90
40996;DHT22;26723;57.478;12.066;2022-07-11T07:49:28;21.30;99.90
40996;DHT22;26723;57.478;12.066;2022-07-11T07:52:37;21.40;99.90
40996;DHT22;26723;57.478;12.066;2022-07-11T07:55:46;21.30;99.90
40996;DHT22;26723;57.478;12.066;2022-07-11T07:58:55;21.10;99.90
40996;DHT22;26723;57.478;12.066;2022-07-11T08:02:04;21.20;99.90
40996;DHT22;26723;57.478;12.066;2022-07-11T08:05:12;21.50;99.90
40996;DHT22;26723;57.478;12.066;2022-07-11T08:08:20;21.70;99.90
40996;DHT22;26723;57.478;12.066;2022-07-11T08:11:28;22.00;99.90
40996;DHT22;26723;57.478;12.066;2022-07-11T08:14:39;22.40;99.90
40996;DHT22;26723;57.478;12.066;2022-07-11T08:17:47;23.10;99.90
40996;DHT22;26723;57.478;12.066;2022-07-11T08:20:56;23.80;99.90
40996;DHT22;26723;57.478;12.066;2022-07-11T08:24:05;24.30;99.90
40996;DHT22;26723;57.478;12.066;2022-07-11T08:27:13;24.70;99.90
40996;DHT22;26723;57.478;12.066;2022-07-11T08:30:43;24.80;99.90
40996;DHT22;26723;57.478;12.066;2022-07-11T08:33:51;24.90;99.90
40996;DHT22;26723;57.478;12.066;2022-07-11T08:37:00;25.20;99.90
40996;DHT22;26723;57.478;12.066;2022-07-11T08:40:09;24.90;99.90
40996;DHT22;26723;57.478;12.066;2022-07-11T08:43:20;24.40;99.90
40996;DHT22;26723;57.478;12.066;2022-07-11T08:46:31;24.20;99.90
40996;DHT22;26723;57.478;12.066;2022-07-11T08:49:40;24.00;99.90
40996;DHT22;26723;57.478;12.066;2022-07-11T08:52:49;24.60;99.90
40996;DHT22;26723;57.478;12.066;2022-07-11T08:55:58;25.40;99.90
40996;DHT22;26723;57.478;12.066;2022-07-11T08:59:07;25.60;99.90
40996;DHT22;26723;57.478;12.066;2022-07-11T09:02:17;26.20;99.90
40996;DHT22;26723;57.478;12.066;2022-07-11T09:05:27;26.20;99.90
40996;DHT22;26723;57.478;12.066;2022-07-11T09:08:36;25.80;99.90
40996;DHT22;26723;57.478;12.066;2022-07-11T09:11:52;25.20;99.90
40996;DHT22;26723;57.478;12.066;2022-07-11T09:15:00;24.30;99.90
40996;DHT22;26723;57.478;12.066;2022-07-11T09:18:31;23.80;99.90
40996;DHT22;26723;57.478;12.066;2022-07-11T09:21:59;23.40;99.90
40996;DHT22;26723;57.478;12.066;2022-07-11T09:25:25;23.30;99.90
40996;DHT22;26723;57.478;12.066;2022-07-11T09:28:38;23.50;99.90
40996;DHT22;26723;57.478;12.066;2022-07-11T09:31:46;23.50;99.90
40996;DHT22;26723;57.478;12.066;2022-07-11T09:35:00;23.30;99.90
40996;DHT22;26723;57.478;12.066;2022-07-11T09:38:10;23.10;99.90
40996;DHT22;26723;57.478;12.066;2022-07-11T09:41:19;23.60;99.90
40996;DHT22;26723;57.478;12.066;2022-07-11T09:44:28;24.00;99.90
40996;DHT22;26723;57.478;12.066;2022-07-11T09:47:44;23.90;99.90
40996;DHT22;26723;57.478;12.066;2022-07-11T09:50:58;24.20;99.90
40996;DHT22;26723;57.478;12.066;2022-07-11T09:54:11;24.50;99.90
40996;DHT22;26723;57.478;12.066;2022-07-11T09:57:19;24.30;99.90
40996;DHT22;26723;57.478;12.066;2022-07-11T10:00:37;24.50;99.90
40996;DHT22;26723;57.478;12.066;2022-07-11T10:03:45;24.60;99.90
40996;DHT22;26723;57.478;12.066;2022-07-11T10:07:06;24.80;99.90
40996;DHT22;26723;57.478;12.066;2022-07-11T10:10:14;24.60;99.90
40996;DHT22;26723;57.478;12.066;2022-07-11T10:13:23;24.80;99.90
40996;DHT22;26723;57.478;12.066;2022-07-11T10:16:37;24.90;99.90
40996;DHT22;26723;57.478;12.066;2022-07-11T10:19:52;24.90;99.90
40996;DHT22;26723;57.478;12.066;2022-07-11T10:23:09;24.80;99.90
40996;DHT22;26723;57.478;12.066;2022-07-11T10:26:25;25.10;99.90
40996;DHT22;26723;57.478;12.066;2022-07-11T10:29:42;25.00;99.90
40996;DHT22;26723;57.478;12.066;2022-07-11T10:33:00;25.20;99.90
40996;DHT22;26723;57.478;12.066;2022-07-11T10:36:25;25.70;99.90
40996;DHT22;26723;57.478;12.066;2022-07-11T10:39:36;25.70;99.90
40996;DHT22;26723;57.478;12.066;2022-07-11T10:42:46;25.20;99.90
40996;DHT22;26723;57.478;12.066;2022-07-11T10:45:56;25.40;99.90
40996;DHT22;26723;57.478;12.066;2022-07-11T10:49:14;25.00;99.90
40996;DHT22;26723;57.478;12.066;2022-07-11T10:52:25;25.20;99.90
40996;DHT22;26723;57.478;12.066;2022-07-11T10:55:37;25.20;99.90
40996;DHT22;26723;57.478;12.066;2022-07-11T10:58:59;25.10;99.90
40996;DHT22;26723;57.478;12.066;2022-07-11T11:02:11;24.70;99.90
40996;DHT22;26723;57.478;12.066;2022-07-11T11:05:45;24.60;99.90
40996;DHT22;26723;57.478;12.066;2022-07-11T11:08:55;24.50;99.90
40996;DHT22;26723;57.478;12.066;2022-07-11T11:12:05;24.30;99.90
40996;DHT22;26723;57.478;12.066;2022-07-11T11:15:32;24.00;99.90
40996;DHT22;26723;57.478;12.066;2022-07-11T11:18:43;24.10;99.90
40996;DHT22;26723;57.478;12.066;2022-07-11T11:21:59;23.80;99.90
40996;DHT22;26723;57.478;12.066;2022-07-11T11:25:09;23.90;99.90
40996;DHT22;26723;57.478;12.066;2022-07-11T11:28:30;24.00;99.90
40996;DHT22;26723;57.478;12.066;2022-07-11T11:31:38;24.10;99.90
40996;DHT22;26723;57.478;12.066;2022-07-11T11:34:47;24.20;99.90
40996;DHT22;26723;57.478;12.066;2022-07-11T11:37:56;24.00;99.90
40996;DHT22;26723;57.478;12.066;2022-07-11T11:41:04;24.10;99.90
40996;DHT22;26723;57.478;12.066;2022-07-11T11:44:14;24.30;99.90
40996;DHT22;26723;57.478;12.066;2022-07-11T11:47:23;24.30;99.90
40996;DHT22;26723;57.478;12.066;2022-07-11T11:50:32;24.20;99.90
40996;DHT22;26723;57.478;12.066;2022-07-11T11:53:41;24.00;99.90
40996;DHT22;26723;57.478;12.066;2022-07-11T11:56:51;23.90;99.90
40996;DHT22;26723;57.478;12.066;2022-07-11T12:00:00;23.80;99.90
40996;DHT22;26723;57.478;12.066;2022-07-11T12:03:10;23.80;99.90
40996;DHT22;26723;57.478;12.066;2022-07-11T12:06:21;23.70;99.90
40996;DHT22;26723;57.478;12.066;2022-07-11T12:09:30;23.50;99.90
40996;DHT22;26723;57.478;12.066;2022-07-11T12:12:59;23.50;99.90
40996;DHT22;26723;57.478;12.066;2022-07-11T12:16:13;23.40;99.90
40996;DHT22;26723;57.478;12.066;2022-07-11T12:19:40;23.40;99.90
40996;DHT22;26723;57.478;12.066;2022-07-11T12:22:50;23.30;99.90
40996;DHT22;26723;57.478;12.066;2022-07-11T12:25:59;23.20;99.90
40996;DHT22;26723;57.478;12.066;2022-07-11T12:29:11;23.20;99.90
40996;DHT22;26723;57.478;12.066;2022-07-11T12:32:21;23.20;99.90
40996;DHT22;26723;57.478;12.066;2022-07-11T12:35:29;23.10;99.90
40996;DHT22;26723;57.478;12.066;2022-07-11T12:38:47;23.20;99.90
40996;DHT22;26723;57.478;12.066;2022-07-11T12:41:59;23.20;99.90
40996;DHT22;26723;57.478;12.066;2022-07-11T12:45:09;23.20;99.90
40996;DHT22;26723;57.478;12.066;2022-07-11T12:48:19;23.00;99.90
40996;DHT22;26723;57.478;12.066;2022-07-11T12:51:28;23.00;99.90
40996;DHT22;26723;57.478;12.066;2022-07-11T12:54:36;23.20;99.90
40996;DHT22;26723;57.478;12.066;2022-07-11T12:58:00;23.00;99.90
40996;DHT22;26723;57.478;12.066;2022-07-11T13:01:09;22.80;99.90
40996;DHT22;26723;57.478;12.066;2022-07-11T13:04:30;22.60;99.90
40996;DHT22;26723;57.478;12.066;2022-07-11T13:07:41;22.50;99.90
40996;DHT22;26723;57.478;12.066;2022-07-11T13:11:06;22.50;99.90
40996;DHT22;26723;57.478;12.066;2022-07-11T13:14:17;22.50;99.90
40996;DHT22;26723;57.478;12.066;2022-07-11T13:17:44;22.60;99.90
40996;DHT22;26723;57.478;12.066;2022-07-11T13:20:54;22.40;99.90
40996;DHT22;26723;57.478;12.066;2022-07-11T13:24:03;22.30;99.90
40996;DHT22;26723;57.478;12.066;2022-07-11T13:27:11;22.30;99.90
40996;DHT22;26723;57.478;12.066;2022-07-11T13:30:21;22.20;99.90
40996;DHT22;26723;57.478;12.066;2022-07-11T13:33:50;22.30;99.90
40996;DHT22;26723;57.478;12.066;2022-07-11T13:36:59;22.20;99.90
40996;DHT22;26723;57.478;12.066;2022-07-11T13:40:09;22.30;99.90
40996;DHT22;26723;57.478;12.066;2022-07-11T13:43:18;22.20;99.90
40996;DHT22;26723;57.478;12.066;2022-07-11T13:46:26;22.30;99.90
40996;DHT22;26723;57.478;12.066;2022-07-11T13:49:36;22.30;99.90
40996;DHT22;26723;57.478;12.066;2022-07-11T13:52:46;22.30;99.90
40996;DHT22;26723;57.478;12.066;2022-07-11T13:55:55;22.30;99.90
40996;DHT22;26723;57.478;12.066;2022-07-11T13:59:03;22.40;99.90
40996;DHT22;26723;57.478;12.066;2022-07-11T14:02:12;22.50;99.90
40996;DHT22;26723;57.478;12.066;2022-07-11T14:05:20;22.60;99.90
40996;DHT22;26723;57.478;12.066;2022-07-11T14:08:31;22.70;99.90
40996;DHT22;26723;57.478;12.066;2022-07-11T14:11:39;22.70;99.90
40996;DHT22;26723;57.478;12.066;2022-07-11T14:14:47;22.70;99.90
40996;DHT22;26723;57.478;12.066;2022-07-11T14:17:55;22.60;99.90
40996;DHT22;26723;57.478;12.066;2022-07-11T14:21:04;22.60;99.90
40996;DHT22;26723;57.478;12.066;2022-07-11T14:24:13;22.70;99.90
40996;DHT22;26723;57.478;12.066;2022-07-11T14:27:22;22.60;99.90
40996;DHT22;26723;57.478;12.066;2022-07-11T14:30:31;22.70;99.90
40996;DHT22;26723;57.478;12.066;2022-07-11T14:33:39;22.70;99.90
40996;DHT22;26723;57.478;12.066;2022-07-11T14:36:48;22.70;99.90
40996;DHT22;26723;57.478;12.066;2022-07-11T14:39:57;22.70;99.90
40996;DHT22;26723;57.478;12.066;2022-07-11T14:43:05;22.60;99.90
40996;DHT22;26723;57.478;12.066;2022-07-11T14:46:14;22.70;99.90
40996;DHT22;26723;57.478;12.066;2022-07-11T14:49:23;22.60;99.90
40996;DHT22;26723;57.478;12.066;2022-07-11T14:52:31;22.60;99.90
40996;DHT22;26723;57.478;12.066;2022-07-11T14:55:41;22.60;99.90
40996;DHT22;26723;57.478;12.066;2022-07-11T14:58:50;22.60;99.90
40996;DHT22;26723;57.478;12.066;2022-07-11T15:01:58;22.70;99.90
40996;DHT22;26723;57.478;12.066;2022-07-11T15:05:06;22.70;99.90
40996;DHT22;26723;57.478;12.066;2022-07-11T15:08:15;22.50;99.90
40996;DHT22;26723;57.478;12.066;2022-07-11T15:11:41;22.50;99.90
40996;DHT22;26723;57.478;12.066;2022-07-11T15:15:09;22.60;99.90
40996;DHT22;26723;57.478;12.066;2022-07-11T15:18:17;22.50;99.90
40996;DHT22;26723;57.478;12.066;2022-07-11T15:21:25;22.60;99.90
40996;DHT22;26723;57.478;12.066;2022-07-11T15:24:33;22.60;99.90
40996;DHT22;26723;57.478;12.066;2022-07-11T15:27:43;22.50;99.90
40996;DHT22;26723;57.478;12.066;2022-07-11T15:30:51;22.40;99.90
40996;DHT22;26723;57.478;12.066;2022-07-11T15:33:59;22.40;99.90
40996;DHT22;26723;57.478;12.066;2022-07-11T15:37:08;22.40;99.90
40996;DHT22;26723;57.478;12.066;2022-07-11T15:40:16;22.40;99.90
40996;DHT22;26723;57.478;12.066;2022-07-11T15:43:26;22.70;99.90
40996;DHT22;26723;57.478;12.066;2022-07-11T15:46:35;22.90;99.90
40996;DHT22;26723;57.478;12.066;2022-07-11T15:49:44;23.10;99.90
40996;DHT22;26723;57.478;12.066;2022-07-11T15:52:52;23.20;99.90
40996;DHT22;26723;57.478;12.066;2022-07-11T15:56:02;23.20;99.90
40996;DHT22;26723;57.478;12.066;2022-07-11T15:59:11;23.20;99.90
40996;DHT22;26723;57.478;12.066;2022-07-11T16:02:20;23.00;99.90
40996;DHT22;26723;57.478;12.066;2022-07-11T16:05:28;22.90;99.90
40996;DHT22;26723;57.478;12.066;2022-07-11T16:08:36;22.90;99.90
40996;DHT22;26723;57.478;12.066;2022-07-11T16:11:44;23.10;99.90
40996;DHT22;26723;57.478;12.066;2022-07-11T16:14:54;23.20;99.90
40996;DHT22;26723;57.478;12.066;2022-07-11T16:18:02;23.10;99.90
40996;DHT22;26723;57.478;12.066;2022-07-11T16:21:11;23.10;99.90
40996;DHT22;26723;57.478;12.066;2022-07-11T16:24:19;23.00;99.90
40996;DHT22;26723;57.478;12.066;2022-07-11T16:27:27;23.10;99.90
40996;DHT22;26723;57.478;12.066;2022-07-11T16:30:37;23.20;99.90
40996;DHT22;26723;57.478;12.066;2022-07-11T16:33:45;23.10;99.90
40996;DHT22;26723;57.478;12.066;2022-07-11T16:36:53;23.00;99.90
40996;DHT22;26723;57.478;12.066;2022-07-11T16:40:02;23.10;99.90
40996;DHT22;26723;57.478;12.066;2022-07-11T16:43:28;23.10;99.90
40996;DHT22;26723;57.478;12.066;2022-07-11T16:46:37;23.00;99.90
40996;DHT22;26723;57.478;12.066;2022-07-11T16:49:46;22.70;99.90
40996;DHT22;26723;57.478;12.066;2022-07-11T16:52:54;22.50;99.90
40996;DHT22;26723;57.478;12.066;2022-07-11T16:56:02;22.20;99.90
40996;DHT22;26723;57.478;12.066;2022-07-11T16:59:11;22.20;99.90
40996;DHT22;26723;57.478;12.066;2022-07-11T17:02:21;22.20;99.90
40996;DHT22;26723;57.478;12.066;2022-07-11T17:05:30;22.20;99.90
40996;DHT22;26723;57.478;12.066;2022-07-11T17:08:39;22.10;99.90
40996;DHT22;26723;57.478;12.066;2022-07-11T17:11:53;22.00;99.90
40996;DHT22;26723;57.478;12.066;2022-07-11T17:15:01;22.00;99.90
40996;DHT22;26723;57.478;12.066;2022-07-11T17:18:11;22.20;99.90
40996;DHT22;26723;57.478;12.066;2022-07-11T17:21:19;22.40;99.90
40996;DHT22;26723;57.478;12.066;2022-07-11T17:24:27;22.40;99.90
40996;DHT22;26723;57.478;12.066;2022-07-11T17:27:36;22.20;99.90
40996;DHT22;26723;57.478;12.066;2022-07-11T17:30:51;22.30;99.90
40996;DHT22;26723;57.478;12.066;2022-07-11T17:34:01;22.20;99.90
40996;DHT22;26723;57.478;12.066;2022-07-11T17:37:10;22.20;99.90
40996;DHT22;26723;57.478;12.066;2022-07-11T17:40:18;22.20;99.90
40996;DHT22;26723;57.478;12.066;2022-07-11T17:43:27;22.20;99.90
40996;DHT22;26723;57.478;12.066;2022-07-11T17:46:35;22.20;99.90
40996;DHT22;26723;57.478;12.066;2022-07-11T17:49:45;22.20;99.90
40996;DHT22;26723;57.478;12.066;2022-07-11T17:52:53;22.20;99.90
40996;DHT22;26723;57.478;12.066;2022-07-11T17:56:02;21.90;99.90
40996;DHT22;26723;57.478;12.066;2022-07-11T17:59:10;21.70;99.90
40996;DHT22;26723;57.478;12.066;2022-07-11T18:02:19;21.70;99.90
40996;DHT22;26723;57.478;12.066;2022-07-11T18:05:29;21.70;99.90
40996;DHT22;26723;57.478;12.066;2022-07-11T18:08:37;21.60;99.90
40996;DHT22;26723;57.478;12.066;2022-07-11T18:11:53;21.50;99.90
40996;DHT22;26723;57.478;12.066;2022-07-11T18:15:03;21.40;99.90
40996;DHT22;26723;57.478;12.066;2022-07-11T18:18:12;21.40;99.90
40996;DHT22;26723;57.478;12.066;2022-07-11T18:21:21;21.30;99.90
40996;DHT22;26723;57.478;12.066;2022-07-11T18:24:29;21.10;99.90
40996;DHT22;26723;57.478;12.066;2022-07-11T18:27:40;20.90;99.90
40996;DHT22;26723;57.478;12.066;2022-07-11T18:30:48;20.80;99.90
40996;DHT22;26723;57.478;12.066;2022-07-11T18:33:56;20.80;99.90
40996;DHT22;26723;57.478;12.066;2022-07-11T18:37:06;20.70;99.90
40996;DHT22;26723;57.478;12.066;2022-07-11T18:40:14;20.70;99.90
40996;DHT22;26723;57.478;12.066;2022-07-11T18:43:39;20.80;99.90
40996;DHT22;26723;57.478;12.066;2022-07-11T18:47:02;20.70;99.90
40996;DHT22;26723;57.478;12.066;2022-07-11T18:50:11;20.60;99.90
40996;DHT22;26723;57.478;12.066;2022-07-11T18:53:22;20.60;99.90
40996;DHT22;26723;57.478;12.066;2022-07-11T18:56:30;20.50;99.90
40996;DHT22;26723;57.478;12.066;2022-07-11T18:59:39;20.40;99.90
40996;DHT22;26723;57.478;12.066;2022-07-11T19:02:47;20.40;99.90
40996;DHT22;26723;57.478;12.066;2022-07-11T19:05:55;20.20;99.90
40996;DHT22;26723;57.478;12.066;2022-07-11T19:09:06;20.20;99.90
40996;DHT22;26723;57.478;12.066;2022-07-11T19:12:14;20.00;99.90
40996;DHT22;26723;57.478;12.066;2022-07-11T19:15:23;20.00;99.90
40996;DHT22;26723;57.478;12.066;2022-07-11T19:18:31;20.00;99.90
40996;DHT22;26723;57.478;12.066;2022-07-11T19:21:39;19.90;99.90
40996;DHT22;26723;57.478;12.066;2022-07-11T19:24:49;19.80;99.90
40996;DHT22;26723;57.478;12.066;2022-07-11T19:27:57;19.70;99.90
40996;DHT22;26723;57.478;12.066;2022-07-11T19:31:06;19.70;99.90
40996;DHT22;26723;57.478;12.066;2022-07-11T19:34:15;19.60;99.90
40996;DHT22;26723;57.478;12.066;2022-07-11T19:37:23;19.50;99.90
40996;DHT22;26723;57.478;12.066;2022-07-11T19:40:33;19.40;99.90
40996;DHT22;26723;57.478;12.066;2022-07-11T19:43:42;19.30;99.90